Richelieu — ZDHS7 — position and weather

sailwx.info

Track history (hours):
 
Tides and Currents Weather Stations Pressure Air Temp Water Temp Dewpoint Dewpoint Depression Visibility Wind Speed Wind Dir Waves Ship Positions

Richelieu

Last reported at 2017-Oct-15 09:02 UTC. Time now 2017-Oct-19 15:06 UTC.
Position N 39°27' W 009°46'.

Length 89 m; draft 3.5 m.

Type: Cargo ship. MMSI: 236354000.

Date/timePositionNaut miles runAvg speedWind from/ knotsBaromVisibWave heightAir tempDewpointWater temp
2017-Oct-15 09:02N 39°27' W 009°46'3 9.7
2017-Oct-15 08:43N 39°24' W 009°46'3 9.5
2017-Oct-15 08:25N 39°21' W 009°47'4 9.5
2017-Oct-15 08:00N 39°17' W 009°47'510.0
2017-Oct-15 07:30N 39°12' W 009°48'5 9.7
2017-Oct-15 07:01N 39°08' W 009°48'5 9.4
2017-Oct-15 06:31N 39°03' W 009°49'510.0
2017-Oct-15 06:00N 38°58' W 009°50'5 9.6
2017-Oct-15 05:30N 38°53' W 009°51'5 9.7
2017-Oct-15 05:00N 38°48' W 009°51'510.0
2017-Oct-15 04:30N 38°43' W 009°51'510.1
2017-Oct-15 04:01N 38°39' W 009°50'510.1
2017-Oct-15 03:30N 38°34' W 009°49'510.3
2017-Oct-15 03:00N 38°29' W 009°47'510.3
2017-Oct-15 02:30N 38°24' W 009°45'510.1
2017-Oct-15 02:00N 38°19' W 009°44'510.5
2017-Oct-15 01:30N 38°14' W 009°42'510.3
2017-Oct-15 01:00N 38°09' W 009°41'510.0
2017-Oct-15 00:31N 38°04' W 009°39'5 9.5
2017-Oct-15 00:00N 37°59' W 009°38'5 9.6
2017-Oct-14 23:30N 37°54' W 009°37'5 9.9
2017-Oct-14 23:00N 37°50' W 009°35'510.0
2017-Oct-14 22:30N 37°45' W 009°34'510.2
2017-Oct-14 22:01N 37°40' W 009°32'510.0
2017-Oct-14 21:30N 37°35' W 009°30'5 9.9
2017-Oct-14 21:00N 37°30' W 009°29'5 9.7
2017-Oct-14 20:30N 37°25' W 009°28'510.0
2017-Oct-14 20:00N 37°20' W 009°27'510.1
2017-Oct-14 19:31N 37°16' W 009°25'5 9.9
2017-Oct-14 19:00N 37°11' W 009°23'5 9.6
2017-Oct-14 18:30N 37°06' W 009°22'5 9.5
2017-Oct-14 17:58N 37°01' W 009°21'7 9.3
2017-Oct-14 17:14N 36°55' W 009°18'2 9.2
2017-Oct-14 17:00N 36°53' W 009°18'5 9.4
2017-Oct-14 16:30N 36°49' W 009°13'5 9.7
2017-Oct-14 16:00N 36°46' W 009°09'5 9.9
2017-Oct-14 15:30N 36°44' W 009°03'1110.0
2017-Oct-14 14:23N 36°44' W 008°49'4 9.6
2017-Oct-14 14:00N 36°44' W 008°45'5 9.8
2017-Oct-14 13:30N 36°44' W 008°39'610.1
2017-Oct-14 12:54N 36°44' W 008°31'4 9.9
2017-Oct-14 12:27N 36°44' W 008°25'8 9.6
2017-Oct-14 11:39N 36°44' W 008°16'2 9.4
2017-Oct-14 11:28N 36°44' W 008°14'5 9.7
2017-Oct-14 10:56N 36°44' W 008°07'510.2
2017-Oct-14 10:24N 36°44' W 008°00'610.2
2017-Oct-14 09:48N 36°44' W 007°53'510.2
2017-Oct-14 09:16N 36°45' W 007°46'310.3
2017-Oct-14 08:57N 36°45' W 007°42'510.1
2017-Oct-14 08:29N 36°45' W 007°36'  
2017-Oct-10 19:50N 36°40' W 007°20'3 8.9
2017-Oct-10 19:30N 36°39' W 007°24'4 8.4
2017-Oct-10 18:59N 36°38' W 007°29'4 8.7
2017-Oct-10 18:29N 36°38' W 007°34'4 8.9
2017-Oct-10 18:00N 36°37' W 007°40'5 9.3
2017-Oct-10 17:29N 36°37' W 007°46'4 9.2
2017-Oct-10 17:00N 36°36' W 007°51'5 9.1
2017-Oct-10 16:30N 36°36' W 007°57'5 9.4
2017-Oct-10 16:00N 36°35' W 008°03'5 9.5
2017-Oct-10 15:30N 36°34' W 008°08'5 9.4
2017-Oct-10 15:00N 36°34' W 008°14'9 9.2
2017-Oct-10 14:00N 36°33' W 008°26'5 9.2
2017-Oct-10 13:30N 36°32' W 008°31'5 9.5
2017-Oct-10 13:00N 36°31' W 008°37'510.0
2017-Oct-10 12:29N 36°31' W 008°44'5 9.8
2017-Oct-10 12:00N 36°31' W 008°49'5 9.7
2017-Oct-10 11:30N 36°31' W 008°55'5 9.6
2017-Oct-10 11:00N 36°31' W 009°01'5 9.7
2017-Oct-10 10:31N 36°31' W 009°07'5 9.8
2017-Oct-10 10:00N 36°33' W 009°13'5 9.9
2017-Oct-10 09:31N 36°35' W 009°19'510.2
2017-Oct-10 09:00N 36°39' W 009°23'5 9.9
2017-Oct-10 08:30N 36°42' W 009°27'5 9.6
2017-Oct-10 08:00N 36°46' W 009°31'5 9.1
2017-Oct-10 07:30N 36°50' W 009°34'5 9.7
2017-Oct-10 07:00N 36°55' W 009°36'5 9.5
2017-Oct-10 06:30N 36°59' W 009°37'5 9.4
2017-Oct-10 06:00N 37°04' W 009°38'5 9.2
2017-Oct-10 05:30N 37°08' W 009°40'5 9.3
2017-Oct-10 05:00N 37°13' W 009°41'5 9.3
2017-Oct-10 04:30N 37°17' W 009°42'5 9.6
2017-Oct-10 04:00N 37°22' W 009°43'5 9.6
2017-Oct-10 03:30N 37°27' W 009°45'5 9.5
2017-Oct-10 03:00N 37°31' W 009°46'4 9.0
2017-Oct-10 02:30N 37°36' W 009°47'5 9.2
2017-Oct-10 02:00N 37°40' W 009°48'5 9.4
2017-Oct-10 01:30N 37°45' W 009°50'5 9.3
2017-Oct-10 01:00N 37°49' W 009°52'5 9.6
2017-Oct-10 00:30N 37°54' W 009°53'510.1
2017-Oct-10 00:00N 37°59' W 009°55'5 9.6
2017-Oct-09 23:30N 38°03' W 009°56'5 9.8
2017-Oct-09 23:00N 38°08' W 009°57'510.3
2017-Oct-09 22:30N 38°13' W 009°59'510.3
2017-Oct-09 22:00N 38°18' W 010°00'510.1
2017-Oct-09 21:30N 38°23' W 010°01'5 9.6
2017-Oct-09 21:00N 38°28' W 010°03'5 9.3
2017-Oct-09 20:30N 38°32' W 010°04'5 9.4
2017-Oct-09 20:00N 38°37' W 010°05'5 9.0
2017-Oct-09 19:30N 38°41' W 010°07'5 9.2
2017-Oct-09 19:00N 38°46' W 010°07'5 9.8
2017-Oct-09 18:30N 38°51' W 010°07'5 9.7
2017-Oct-09 18:00N 38°56' W 010°07'5 9.7
2017-Oct-09 17:30N 39°01' W 010°06'5 9.3
2017-Oct-09 17:00N 39°05' W 010°06'5 9.2
2017-Oct-09 16:30N 39°10' W 010°06'5 9.3
2017-Oct-09 16:00N 39°14' W 010°06'5 9.4
2017-Oct-09 15:30N 39°19' W 010°06'2 4.6
2017-Oct-09 15:00N 39°21' W 010°06'0 0.7
2017-Oct-09 14:30N 39°21' W 010°07'0 0.6
2017-Oct-09 14:00N 39°21' W 010°07'5 9.2
2017-Oct-09 13:30N 39°26' W 010°07'5 9.5
2017-Oct-09 13:00N 39°31' W 010°07'5 9.7
2017-Oct-09 12:30N 39°35' W 010°07'5 9.5
2017-Oct-09 12:00N 39°40' W 010°07'5 9.4
2017-Oct-09 11:30N 39°45' W 010°07'5 9.6
2017-Oct-09 11:00N 39°50' W 010°06'5 9.3
2017-Oct-09 10:30N 39°54' W 010°07'5 9.1
2017-Oct-09 10:00N 39°59' W 010°07'5 9.2
2017-Oct-09 09:30N 40°03' W 010°07'5 9.3
2017-Oct-09 09:00N 40°08' W 010°07'5 9.4
2017-Oct-09 08:30N 40°13' W 010°07'5 9.7
2017-Oct-09 08:00N 40°18' W 010°07'5 9.8
2017-Oct-09 07:30N 40°23' W 010°07'5 9.3
2017-Oct-09 07:00N 40°27' W 010°07'5 9.5
2017-Oct-09 06:30N 40°32' W 010°07'5 9.4
2017-Oct-09 06:00N 40°37' W 010°07'5 9.3
2017-Oct-09 05:30N 40°41' W 010°08'5 9.5
2017-Oct-09 05:00N 40°46' W 010°08'5 9.5
2017-Oct-09 04:30N 40°51' W 010°08'5 9.4
2017-Oct-09 04:00N 40°55' W 010°08'5 9.2
2017-Oct-09 03:30N 41°00' W 010°08'5 9.5
2017-Oct-09 03:00N 41°05' W 010°07'5 9.7
2017-Oct-09 02:30N 41°10' W 010°07'5 9.8
2017-Oct-09 02:00N 41°14' W 010°07'11 9.7
2017-Oct-09 00:49N 41°26' W 010°07'3 9.6
2017-Oct-09 00:30N 41°29' W 010°07'5 9.7
2017-Oct-09 00:00N 41°34' W 010°07'288 8.4
2017-Oct-07 13:33N 45°58' W 007°28'1 9.0
2017-Oct-07 13:27N 45°59' W 007°27'46 8.8
2017-Oct-07 08:15N 46°36' W 006°48'6 9.0
2017-Oct-07 07:32N 46°41' W 006°42'11 9.0
2017-Oct-07 06:19N 46°50' W 006°33'3 9.1
2017-Oct-07 06:00N 46°52' W 006°30'5 9.1
2017-Oct-07 05:28N 46°56' W 006°26'16 9.3
2017-Oct-07 03:47N 47°09' W 006°13'3 8.3
2017-Oct-07 03:28N 47°11' W 006°11'7 7.9
2017-Oct-07 02:35N 47°17' W 006°05'3 7.7
2017-Oct-07 02:13N 47°19' W 006°03'2 8.0
2017-Oct-07 02:00N 47°21' W 006°01'4 7.2
2017-Oct-07 01:29N 47°24' W 005°58'4 7.9
2017-Oct-07 00:55N 47°27' W 005°54'4 8.5
2017-Oct-07 00:24N 47°31' W 005°50'3 8.4
2017-Oct-07 00:00N 47°34' W 005°47'5 9.2
2017-Oct-06 23:30N 47°37' W 005°43'5 9.5
2017-Oct-06 23:00N 47°41' W 005°39'5 9.4
2017-Oct-06 22:30N 47°45' W 005°35'510.1
2017-Oct-06 22:00N 47°49' W 005°30'510.4
2017-Oct-06 21:30N 47°53' W 005°25'510.2
2017-Oct-06 21:00N 47°57' W 005°21'611.2
2017-Oct-06 20:30N 48°01' W 005°16'510.9
2017-Oct-06 20:00N 48°06' W 005°11'510.0
2017-Oct-06 19:30N 48°09' W 005°05'5 9.6
2017-Oct-06 19:00N 48°12' W 004°60'5 9.4
2017-Oct-06 18:31N 48°15' W 004°54'5 9.2
2017-Oct-06 18:00N 48°17' W 004°48'5 9.6
2017-Oct-06 17:30N 48°18' W 004°41'5 9.8
2017-Oct-06 17:00N 48°20' W 004°34'5 9.3
2017-Oct-06 16:30N 48°22' W 004°28'1 2.0
2017-Oct-06 16:00N 48°23' W 004°27'0 0.0
2017-Oct-06 15:30N 48°23' W 004°27'0 0.0
2017-Oct-06 15:00N 48°23' W 004°27'0 0.0
2017-Oct-06 14:30N 48°23' W 004°27'0 0.0
2017-Oct-06 14:00N 48°23' W 004°27'0 0.0
2017-Oct-06 13:30N 48°23' W 004°27'0 0.0
2017-Oct-06 13:00N 48°23' W 004°27'0 0.0
2017-Oct-06 12:30N 48°23' W 004°27'0 0.0
2017-Oct-06 12:00N 48°23' W 004°27'0 0.0
2017-Oct-06 11:30N 48°23' W 004°27'0 0.0
2017-Oct-06 11:00N 48°23' W 004°27'0 0.0
2017-Oct-06 10:30N 48°23' W 004°27'0 0.0
2017-Oct-06 10:00N 48°23' W 004°27'0 0.0
2017-Oct-06 09:30N 48°23' W 004°27'0 0.0
2017-Oct-06 09:01N 48°23' W 004°27'0 0.0
2017-Oct-06 08:30N 48°23' W 004°27'0 0.0
2017-Oct-06 08:00N 48°23' W 004°27'0 0.0
2017-Oct-06 07:30N 48°23' W 004°27'0 0.0
2017-Oct-06 07:00N 48°23' W 004°27'0 0.0
2017-Oct-06 06:30N 48°23' W 004°27'0 0.0
2017-Oct-06 06:00N 48°23' W 004°27'0 0.0
2017-Oct-06 05:30N 48°23' W 004°27'0 0.0
2017-Oct-06 05:00N 48°23' W 004°27'0 0.0
2017-Oct-06 04:30N 48°23' W 004°27'0 0.0
2017-Oct-06 04:00N 48°23' W 004°27'0 0.0
2017-Oct-06 03:31N 48°23' W 004°27'0 0.0
2017-Oct-06 03:00N 48°23' W 004°27'0 0.0
2017-Oct-06 02:30N 48°23' W 004°27'0 0.0
2017-Oct-06 02:00N 48°23' W 004°27'0 0.0
2017-Oct-06 01:30N 48°23' W 004°27'0 0.0
2017-Oct-06 01:00N 48°23' W 004°27'0 0.0
2017-Oct-06 00:30N 48°23' W 004°27'0 0.0
2017-Oct-06 00:00N 48°23' W 004°27'0 0.0
2017-Oct-05 23:30N 48°23' W 004°27'0 0.0
2017-Oct-05 23:01N 48°23' W 004°27'0 0.0
2017-Oct-05 22:30N 48°23' W 004°27'0 0.0
2017-Oct-05 22:01N 48°23' W 004°27'0 0.0
2017-Oct-05 21:31N 48°23' W 004°27'0 0.0
2017-Oct-05 21:01N 48°23' W 004°27'0 0.0
2017-Oct-05 20:30N 48°23' W 004°27'0 0.0
2017-Oct-05 20:00N 48°23' W 004°27'0 0.0
2017-Oct-05 19:30N 48°23' W 004°27'0 0.0
2017-Oct-05 19:01N 48°23' W 004°27'0 0.1
2017-Oct-05 18:31N 48°23' W 004°27'0 0.1
2017-Oct-05 18:00N 48°23' W 004°27'0 0.0
2017-Oct-05 17:30N 48°23' W 004°27'0 0.0
2017-Oct-05 17:00N 48°23' W 004°27'0 0.0
2017-Oct-05 15:30N 48°23' W 004°27'0 0.0
2017-Oct-05 15:00N 48°23' W 004°27'0 0.0
2017-Oct-05 14:30N 48°23' W 004°27'0 0.0
2017-Oct-05 14:00N 48°23' W 004°27'0 0.0
2017-Oct-05 13:30N 48°23' W 004°27'0 0.0
2017-Oct-05 13:01N 48°23' W 004°27'0 0.0
2017-Oct-05 12:30N 48°23' W 004°27'0 0.0
2017-Oct-05 12:00N 48°23' W 004°27'0 0.0
2017-Oct-05 11:30N 48°23' W 004°27'0 0.0
2017-Oct-05 11:00N 48°23' W 004°27'0 0.0
2017-Oct-05 10:30N 48°23' W 004°27'0 0.0
2017-Oct-05 10:00N 48°23' W 004°27'0 0.0
2017-Oct-05 09:31N 48°23' W 004°27'  
Track history (hours):
 
Tides and Currents Weather Stations Pressure Air Temp Water Temp Dewpoint Dewpoint Depression Visibility Wind Speed Wind Dir Waves Ship Positions

Richelieu

Last reported at 2017-Oct-15 09:02 UTC. Time now 2017-Oct-19 15:06 UTC.
Position N 39°27' W 009°46'.

Length 89 m; draft 3.5 m.

Type: Cargo ship. MMSI: 236354000.

Date/timePositionNaut miles runAvg speedWind from/ knotsBaromVisibWave heightAir tempDewpointWater temp
2017-Oct-15 09:02N 39°27' W 009°46'3 9.7
2017-Oct-15 08:43N 39°24' W 009°46'3 9.5
2017-Oct-15 08:25N 39°21' W 009°47'4 9.5
2017-Oct-15 08:00N 39°17' W 009°47'510.0
2017-Oct-15 07:30N 39°12' W 009°48'5 9.7
2017-Oct-15 07:01N 39°08' W 009°48'5 9.4
2017-Oct-15 06:31N 39°03' W 009°49'510.0
2017-Oct-15 06:00N 38°58' W 009°50'5 9.6
2017-Oct-15 05:30N 38°53' W 009°51'5 9.7
2017-Oct-15 05:00N 38°48' W 009°51'510.0
2017-Oct-15 04:30N 38°43' W 009°51'510.1
2017-Oct-15 04:01N 38°39' W 009°50'510.1
2017-Oct-15 03:30N 38°34' W 009°49'510.3
2017-Oct-15 03:00N 38°29' W 009°47'510.3
2017-Oct-15 02:30N 38°24' W 009°45'510.1
2017-Oct-15 02:00N 38°19' W 009°44'510.5
2017-Oct-15 01:30N 38°14' W 009°42'510.3
2017-Oct-15 01:00N 38°09' W 009°41'510.0
2017-Oct-15 00:31N 38°04' W 009°39'5 9.5
2017-Oct-15 00:00N 37°59' W 009°38'5 9.6
2017-Oct-14 23:30N 37°54' W 009°37'5 9.9
2017-Oct-14 23:00N 37°50' W 009°35'510.0
2017-Oct-14 22:30N 37°45' W 009°34'510.2
2017-Oct-14 22:01N 37°40' W 009°32'510.0
2017-Oct-14 21:30N 37°35' W 009°30'5 9.9
2017-Oct-14 21:00N 37°30' W 009°29'5 9.7
2017-Oct-14 20:30N 37°25' W 009°28'510.0
2017-Oct-14 20:00N 37°20' W 009°27'510.1
2017-Oct-14 19:31N 37°16' W 009°25'5 9.9
2017-Oct-14 19:00N 37°11' W 009°23'5 9.6
2017-Oct-14 18:30N 37°06' W 009°22'5 9.5
2017-Oct-14 17:58N 37°01' W 009°21'7 9.3
2017-Oct-14 17:14N 36°55' W 009°18'2 9.2
2017-Oct-14 17:00N 36°53' W 009°18'5 9.4
2017-Oct-14 16:30N 36°49' W 009°13'5 9.7
2017-Oct-14 16:00N 36°46' W 009°09'5 9.9
2017-Oct-14 15:30N 36°44' W 009°03'1110.0
2017-Oct-14 14:23N 36°44' W 008°49'4 9.6
2017-Oct-14 14:00N 36°44' W 008°45'5 9.8
2017-Oct-14 13:30N 36°44' W 008°39'610.1
2017-Oct-14 12:54N 36°44' W 008°31'4 9.9
2017-Oct-14 12:27N 36°44' W 008°25'8 9.6
2017-Oct-14 11:39N 36°44' W 008°16'2 9.4
2017-Oct-14 11:28N 36°44' W 008°14'5 9.7
2017-Oct-14 10:56N 36°44' W 008°07'510.2
2017-Oct-14 10:24N 36°44' W 008°00'610.2
2017-Oct-14 09:48N 36°44' W 007°53'510.2
2017-Oct-14 09:16N 36°45' W 007°46'310.3
2017-Oct-14 08:57N 36°45' W 007°42'510.1
2017-Oct-14 08:29N 36°45' W 007°36'  
2017-Oct-10 19:50N 36°40' W 007°20'3 8.9
2017-Oct-10 19:30N 36°39' W 007°24'4 8.4
2017-Oct-10 18:59N 36°38' W 007°29'4 8.7
2017-Oct-10 18:29N 36°38' W 007°34'4 8.9
2017-Oct-10 18:00N 36°37' W 007°40'5 9.3
2017-Oct-10 17:29N 36°37' W 007°46'4 9.2
2017-Oct-10 17:00N 36°36' W 007°51'5 9.1
2017-Oct-10 16:30N 36°36' W 007°57'5 9.4
2017-Oct-10 16:00N 36°35' W 008°03'5 9.5
2017-Oct-10 15:30N 36°34' W 008°08'5 9.4
2017-Oct-10 15:00N 36°34' W 008°14'9 9.2
2017-Oct-10 14:00N 36°33' W 008°26'5 9.2
2017-Oct-10 13:30N 36°32' W 008°31'5 9.5
2017-Oct-10 13:00N 36°31' W 008°37'510.0
2017-Oct-10 12:29N 36°31' W 008°44'5 9.8
2017-Oct-10 12:00N 36°31' W 008°49'5 9.7
2017-Oct-10 11:30N 36°31' W 008°55'5 9.6
2017-Oct-10 11:00N 36°31' W 009°01'5 9.7
2017-Oct-10 10:31N 36°31' W 009°07'5 9.8
2017-Oct-10 10:00N 36°33' W 009°13'5 9.9
2017-Oct-10 09:31N 36°35' W 009°19'510.2
2017-Oct-10 09:00N 36°39' W 009°23'5 9.9
2017-Oct-10 08:30N 36°42' W 009°27'5 9.6
2017-Oct-10 08:00N 36°46' W 009°31'5 9.1
2017-Oct-10 07:30N 36°50' W 009°34'5 9.7
2017-Oct-10 07:00N 36°55' W 009°36'5 9.5
2017-Oct-10 06:30N 36°59' W 009°37'5 9.4
2017-Oct-10 06:00N 37°04' W 009°38'5 9.2
2017-Oct-10 05:30N 37°08' W 009°40'5 9.3
2017-Oct-10 05:00N 37°13' W 009°41'5 9.3
2017-Oct-10 04:30N 37°17' W 009°42'5 9.6
2017-Oct-10 04:00N 37°22' W 009°43'5 9.6
2017-Oct-10 03:30N 37°27' W 009°45'5 9.5
2017-Oct-10 03:00N 37°31' W 009°46'4 9.0
2017-Oct-10 02:30N 37°36' W 009°47'5 9.2
2017-Oct-10 02:00N 37°40' W 009°48'5 9.4
2017-Oct-10 01:30N 37°45' W 009°50'5 9.3
2017-Oct-10 01:00N 37°49' W 009°52'5 9.6
2017-Oct-10 00:30N 37°54' W 009°53'510.1
2017-Oct-10 00:00N 37°59' W 009°55'5 9.6
2017-Oct-09 23:30N 38°03' W 009°56'5 9.8
2017-Oct-09 23:00N 38°08' W 009°57'510.3
2017-Oct-09 22:30N 38°13' W 009°59'510.3
2017-Oct-09 22:00N 38°18' W 010°00'510.1
2017-Oct-09 21:30N 38°23' W 010°01'5 9.6
2017-Oct-09 21:00N 38°28' W 010°03'5 9.3
2017-Oct-09 20:30N 38°32' W 010°04'5 9.4
2017-Oct-09 20:00N 38°37' W 010°05'5 9.0
2017-Oct-09 19:30N 38°41' W 010°07'5 9.2
2017-Oct-09 19:00N 38°46' W 010°07'5 9.8
2017-Oct-09 18:30N 38°51' W 010°07'5 9.7
2017-Oct-09 18:00N 38°56' W 010°07'5 9.7
2017-Oct-09 17:30N 39°01' W 010°06'5 9.3
2017-Oct-09 17:00N 39°05' W 010°06'5 9.2
2017-Oct-09 16:30N 39°10' W 010°06'5 9.3
2017-Oct-09 16:00N 39°14' W 010°06'5 9.4
2017-Oct-09 15:30N 39°19' W 010°06'2 4.6
2017-Oct-09 15:00N 39°21' W 010°06'0 0.7
2017-Oct-09 14:30N 39°21' W 010°07'0 0.6
2017-Oct-09 14:00N 39°21' W 010°07'5 9.2
2017-Oct-09 13:30N 39°26' W 010°07'5 9.5
2017-Oct-09 13:00N 39°31' W 010°07'5 9.7
2017-Oct-09 12:30N 39°35' W 010°07'5 9.5
2017-Oct-09 12:00N 39°40' W 010°07'5 9.4
2017-Oct-09 11:30N 39°45' W 010°07'5 9.6
2017-Oct-09 11:00N 39°50' W 010°06'5 9.3
2017-Oct-09 10:30N 39°54' W 010°07'5 9.1
2017-Oct-09 10:00N 39°59' W 010°07'5 9.2
2017-Oct-09 09:30N 40°03' W 010°07'5 9.3
2017-Oct-09 09:00N 40°08' W 010°07'5 9.4
2017-Oct-09 08:30N 40°13' W 010°07'5 9.7
2017-Oct-09 08:00N 40°18' W 010°07'5 9.8
2017-Oct-09 07:30N 40°23' W 010°07'5 9.3
2017-Oct-09 07:00N 40°27' W 010°07'5 9.5
2017-Oct-09 06:30N 40°32' W 010°07'5 9.4
2017-Oct-09 06:00N 40°37' W 010°07'5 9.3
2017-Oct-09 05:30N 40°41' W 010°08'5 9.5
2017-Oct-09 05:00N 40°46' W 010°08'5 9.5
2017-Oct-09 04:30N 40°51' W 010°08'5 9.4
2017-Oct-09 04:00N 40°55' W 010°08'5 9.2
2017-Oct-09 03:30N 41°00' W 010°08'5 9.5
2017-Oct-09 03:00N 41°05' W 010°07'5 9.7
2017-Oct-09 02:30N 41°10' W 010°07'5 9.8
2017-Oct-09 02:00N 41°14' W 010°07'11 9.7
2017-Oct-09 00:49N 41°26' W 010°07'3 9.6
2017-Oct-09 00:30N 41°29' W 010°07'5 9.7
2017-Oct-09 00:00N 41°34' W 010°07'288 8.4
2017-Oct-07 13:33N 45°58' W 007°28'1 9.0
2017-Oct-07 13:27N 45°59' W 007°27'46 8.8
2017-Oct-07 08:15N 46°36' W 006°48'6 9.0
2017-Oct-07 07:32N 46°41' W 006°42'11 9.0
2017-Oct-07 06:19N 46°50' W 006°33'3 9.1
2017-Oct-07 06:00N 46°52' W 006°30'5 9.1
2017-Oct-07 05:28N 46°56' W 006°26'16 9.3
2017-Oct-07 03:47N 47°09' W 006°13'3 8.3
2017-Oct-07 03:28N 47°11' W 006°11'7 7.9
2017-Oct-07 02:35N 47°17' W 006°05'3 7.7
2017-Oct-07 02:13N 47°19' W 006°03'2 8.0
2017-Oct-07 02:00N 47°21' W 006°01'4 7.2
2017-Oct-07 01:29N 47°24' W 005°58'4 7.9
2017-Oct-07 00:55N 47°27' W 005°54'4 8.5
2017-Oct-07 00:24N 47°31' W 005°50'3 8.4
2017-Oct-07 00:00N 47°34' W 005°47'5 9.2
2017-Oct-06 23:30N 47°37' W 005°43'5 9.5
2017-Oct-06 23:00N 47°41' W 005°39'5 9.4
2017-Oct-06 22:30N 47°45' W 005°35'510.1
2017-Oct-06 22:00N 47°49' W 005°30'510.4
2017-Oct-06 21:30N 47°53' W 005°25'510.2
2017-Oct-06 21:00N 47°57' W 005°21'611.2
2017-Oct-06 20:30N 48°01' W 005°16'510.9
2017-Oct-06 20:00N 48°06' W 005°11'510.0
2017-Oct-06 19:30N 48°09' W 005°05'5 9.6
2017-Oct-06 19:00N 48°12' W 004°60'5 9.4
2017-Oct-06 18:31N 48°15' W 004°54'5 9.2
2017-Oct-06 18:00N 48°17' W 004°48'5 9.6
2017-Oct-06 17:30N 48°18' W 004°41'5 9.8
2017-Oct-06 17:00N 48°20' W 004°34'5 9.3
2017-Oct-06 16:30N 48°22' W 004°28'1 2.0
2017-Oct-06 16:00N 48°23' W 004°27'0 0.0
2017-Oct-06 15:30N 48°23' W 004°27'0 0.0
2017-Oct-06 15:00N 48°23' W 004°27'0 0.0
2017-Oct-06 14:30N 48°23' W 004°27'0 0.0
2017-Oct-06 14:00N 48°23' W 004°27'0 0.0
2017-Oct-06 13:30N 48°23' W 004°27'0 0.0
2017-Oct-06 13:00N 48°23' W 004°27'0 0.0
2017-Oct-06 12:30N 48°23' W 004°27'0 0.0
2017-Oct-06 12:00N 48°23' W 004°27'0 0.0
2017-Oct-06 11:30N 48°23' W 004°27'0 0.0
2017-Oct-06 11:00N 48°23' W 004°27'0 0.0
2017-Oct-06 10:30N 48°23' W 004°27'0 0.0
2017-Oct-06 10:00N 48°23' W 004°27'0 0.0
2017-Oct-06 09:30N 48°23' W 004°27'0 0.0
2017-Oct-06 09:01N 48°23' W 004°27'0 0.0
2017-Oct-06 08:30N 48°23' W 004°27'0 0.0
2017-Oct-06 08:00N 48°23' W 004°27'0 0.0
2017-Oct-06 07:30N 48°23' W 004°27'0 0.0
2017-Oct-06 07:00N 48°23' W 004°27'0 0.0
2017-Oct-06 06:30N 48°23' W 004°27'0 0.0
2017-Oct-06 06:00N 48°23' W 004°27'0 0.0
2017-Oct-06 05:30N 48°23' W 004°27'0 0.0
2017-Oct-06 05:00N 48°23' W 004°27'0 0.0
2017-Oct-06 04:30N 48°23' W 004°27'0 0.0
2017-Oct-06 04:00N 48°23' W 004°27'0 0.0
2017-Oct-06 03:31N 48°23' W 004°27'0 0.0
2017-Oct-06 03:00N 48°23' W 004°27'0 0.0
2017-Oct-06 02:30N 48°23' W 004°27'0 0.0
2017-Oct-06 02:00N 48°23' W 004°27'0 0.0
2017-Oct-06 01:30N 48°23' W 004°27'0 0.0
2017-Oct-06 01:00N 48°23' W 004°27'0 0.0
2017-Oct-06 00:30N 48°23' W 004°27'0 0.0
2017-Oct-06 00:00N 48°23' W 004°27'0 0.0
2017-Oct-05 23:30N 48°23' W 004°27'0 0.0
2017-Oct-05 23:01N 48°23' W 004°27'0 0.0
2017-Oct-05 22:30N 48°23' W 004°27'0 0.0
2017-Oct-05 22:01N 48°23' W 004°27'0 0.0
2017-Oct-05 21:31N 48°23' W 004°27'0 0.0
2017-Oct-05 21:01N 48°23' W 004°27'0 0.0
2017-Oct-05 20:30N 48°23' W 004°27'0 0.0
2017-Oct-05 20:00N 48°23' W 004°27'0 0.0
2017-Oct-05 19:30N 48°23' W 004°27'0 0.0
2017-Oct-05 19:01N 48°23' W 004°27'0 0.1
2017-Oct-05 18:31N 48°23' W 004°27'0 0.1
2017-Oct-05 18:00N 48°23' W 004°27'0 0.0
2017-Oct-05 17:30N 48°23' W 004°27'0 0.0
2017-Oct-05 17:00N 48°23' W 004°27'0 0.0
2017-Oct-05 15:30N 48°23' W 004°27'0 0.0
2017-Oct-05 15:00N 48°23' W 004°27'0 0.0
2017-Oct-05 14:30N 48°23' W 004°27'0 0.0
2017-Oct-05 14:00N 48°23' W 004°27'0 0.0
2017-Oct-05 13:30N 48°23' W 004°27'0 0.0
2017-Oct-05 13:01N 48°23' W 004°27'0 0.0
2017-Oct-05 12:30N 48°23' W 004°27'0 0.0
2017-Oct-05 12:00N 48°23' W 004°27'0 0.0
2017-Oct-05 11:30N 48°23' W 004°27'0 0.0
2017-Oct-05 11:00N 48°23' W 004°27'0 0.0
2017-Oct-05 10:30N 48°23' W 004°27'0 0.0
2017-Oct-05 10:00N 48°23' W 004°27'0 0.0
2017-Oct-05 09:31N 48°23' W 004°27'  

Dump ship's entire track history